createdAt,value
2019-02-07T00:04:26.138Z," 7.66"
2019-02-07T00:09:22.024Z," 7.69"
2019-02-07T00:14:18.176Z," 7.75"
2019-02-07T00:19:14.179Z," 7.80"
2019-02-07T00:24:09.903Z," 7.85"
2019-02-07T00:29:05.919Z," 7.79"
2019-02-07T00:34:01.544Z," 7.75"
2019-02-07T00:38:57.270Z," 7.82"
2019-02-07T00:43:53.150Z," 7.97"
2019-02-07T00:48:49.968Z," 7.83"
2019-02-07T00:53:45.490Z," 7.80"
2019-02-07T00:58:41.453Z," 7.90"
2019-02-07T01:03:37.104Z," 7.87"
2019-02-07T01:08:32.766Z," 7.90"
2019-02-07T01:13:28.452Z," 7.95"
2019-02-07T01:18:25.358Z," 7.98"
2019-02-07T01:23:21.812Z," 7.98"
2019-02-07T01:28:18.190Z," 7.90"
2019-02-07T01:33:13.560Z," 7.83"
2019-02-07T01:38:09.524Z," 7.88"
2019-02-07T01:43:05.128Z," 7.97"
2019-02-07T01:48:00.805Z," 7.90"
2019-02-07T01:52:57.768Z," 7.80"
2019-02-07T01:57:53.268Z," 7.83"
2019-02-07T02:02:48.993Z," 7.76"
2019-02-07T02:07:44.611Z," 7.67"
2019-02-07T02:12:41.224Z," 7.53"
2019-02-07T02:17:36.532Z," 7.31"
2019-02-07T02:22:33.127Z," 7.14"
2019-02-07T02:27:29.733Z," 7.10"
2019-02-07T02:32:26.105Z," 7.02"
2019-02-07T02:37:21.451Z," 6.97"
2019-02-07T02:42:18.222Z," 6.89"
2019-02-07T02:47:13.529Z," 6.82"
2019-02-07T02:52:10.004Z," 6.75"
2019-02-07T02:57:05.300Z," 6.64"
2019-02-07T03:02:00.879Z," 6.64"
2019-02-07T03:06:56.856Z," 6.66"
2019-02-07T03:11:52.777Z," 6.60"
2019-02-07T03:16:49.576Z," 6.52"
2019-02-07T03:21:46.012Z," 6.52"
2019-02-07T03:26:42.287Z," 6.54"
2019-02-07T03:31:38.968Z," 6.49"
2019-02-07T03:36:34.238Z," 6.41"
2019-02-07T03:41:30.975Z," 6.44"
2019-02-07T03:46:26.195Z," 6.44"
2019-02-07T03:51:22.064Z," 6.52"
2019-02-07T03:56:17.676Z," 6.49"
2019-02-07T04:01:13.334Z," 6.57"
2019-02-07T04:06:09.541Z," 6.64"
2019-02-07T04:11:05.169Z," 6.48"
2019-02-07T04:16:00.744Z," 6.60"
2019-02-07T04:20:56.580Z," 6.60"
2019-02-07T04:25:52.181Z," 6.64"
2019-02-07T04:30:49.101Z," 6.63"
2019-02-07T04:35:44.416Z," 6.75"
2019-02-07T04:40:40.128Z," 6.70"
2019-02-07T04:45:35.948Z," 6.63"
2019-02-07T04:50:32.590Z," 6.70"
2019-02-07T04:55:28.192Z," 6.79"
2019-02-07T05:00:23.698Z," 6.77"
2019-02-07T05:05:19.445Z," 6.84"
2019-02-07T05:10:15.359Z," 6.79"
2019-02-07T05:15:10.931Z," 6.82"
2019-02-07T05:20:06.609Z," 6.99"
2019-02-07T05:25:03.942Z," 6.99"
2019-02-07T05:29:59.613Z," 6.95"
2019-02-07T05:34:55.276Z," 6.97"
2019-02-07T05:39:51.869Z," 7.05"
2019-02-07T05:44:47.309Z," 7.11"
2019-02-07T05:49:43.034Z," 7.11"
2019-02-07T05:54:38.816Z," 7.14"
2019-02-07T05:59:35.272Z," 7.13"
2019-02-07T06:04:30.866Z," 7.20"
2019-02-07T06:09:26.771Z," 7.10"
2019-02-07T06:14:22.518Z," 7.24"
2019-02-07T06:19:18.496Z," 7.13"
2019-02-07T06:24:14.881Z," 7.13"
2019-02-07T06:29:10.578Z," 7.21"
2019-02-07T06:34:07.624Z," 7.15"
2019-02-07T06:39:03.024Z," 7.11"
2019-02-07T06:43:58.776Z," 7.18"
2019-02-07T06:48:55.030Z," 7.18"
2019-02-07T06:53:50.668Z," 7.15"
2019-02-07T06:58:46.317Z," 7.14"
2019-02-07T07:03:42.359Z," 7.14"
2019-02-07T07:08:38.748Z," 7.20"
2019-02-07T07:13:34.079Z," 7.17"
2019-02-07T07:18:29.876Z," 7.29"
2019-02-07T07:23:26.597Z," 7.21"
2019-02-07T07:28:21.652Z," 7.28"
2019-02-07T07:33:17.266Z," 7.32"
2019-02-07T07:38:14.256Z," 7.31"
2019-02-07T07:43:09.533Z," 7.31"
2019-02-07T07:48:05.746Z," 7.33"
2019-02-07T07:53:02.162Z," 7.40"
2019-02-07T07:57:58.115Z," 7.53"
2019-02-07T08:02:54.085Z," 7.53"
2019-02-07T08:07:49.943Z," 7.53"
2019-02-07T08:12:45.781Z," 7.51"
2019-02-07T08:17:47.424Z," 7.60"
2019-02-07T08:22:41.209Z," 7.56"
2019-02-07T08:27:36.801Z," 7.60"
2019-02-07T08:32:32.606Z," 7.75"
2019-02-07T08:37:29.601Z," 7.90"
2019-02-07T08:42:25.302Z," 7.93"
2019-02-07T08:47:21.942Z," 7.93"
2019-02-07T08:52:17.360Z," 7.88"
2019-02-07T08:57:13.020Z," 7.90"
2019-02-07T09:02:08.755Z," 7.90"
2019-02-07T09:07:04.812Z," 8.03"
2019-02-07T09:12:00.476Z," 7.97"
2019-02-07T09:16:56.128Z," 8.06"
2019-02-07T09:21:53.257Z," 8.10"
2019-02-07T09:26:49.587Z," 8.10"
2019-02-07T09:31:45.232Z," 8.10"
2019-02-07T09:36:41.646Z," 8.13"
2019-02-07T09:41:37.409Z," 8.26"
2019-02-07T09:46:33.669Z," 8.41"
2019-02-07T09:51:29.821Z," 8.53"
2019-02-07T09:56:25.744Z," 8.55"
2019-02-07T10:01:21.569Z," 8.69"
2019-02-07T10:06:17.838Z," 8.81"
2019-02-07T10:11:13.521Z," 8.95"
2019-02-07T10:16:09.435Z," 9.06"
2019-02-07T10:21:06.439Z," 9.25"
2019-02-07T10:26:02.300Z," 9.39"
2019-02-07T10:30:58.229Z," 9.56"
2019-02-07T10:35:54.097Z," 9.73"
2019-02-07T10:40:49.788Z," 9.64"
2019-02-07T10:45:46.458Z," 9.46"
2019-02-07T10:50:41.608Z," 9.51"
2019-02-07T10:55:37.767Z," 9.58"
2019-02-07T11:00:33.591Z," 9.80"
2019-02-07T11:05:29.895Z,10.25
2019-02-07T11:10:26.065Z,10.56
2019-02-07T11:15:22.767Z,10.26
2019-02-07T11:20:18.245Z,10.30
2019-02-07T11:25:13.866Z,10.15
2019-02-07T11:30:11.278Z,10.23
2019-02-07T11:35:06.709Z,10.37
2019-02-07T11:40:02.561Z,10.26
2019-02-07T11:44:58.172Z,10.15
2019-02-07T11:49:56.101Z,10.28
2019-02-07T11:54:51.449Z,10.38
2019-02-07T11:59:47.136Z,10.37
2019-02-07T12:04:43.064Z,10.25
2019-02-07T12:09:39.336Z,10.31
2019-02-07T12:14:35.178Z,10.42
2019-02-07T12:19:31.465Z,10.42
2019-02-07T12:24:27.781Z,10.42
2019-02-07T12:29:24.462Z,10.42
2019-02-07T12:34:20.186Z,10.38
2019-02-07T12:39:15.831Z,10.40
2019-02-07T12:44:11.385Z,10.41
2019-02-07T12:49:07.498Z,10.35
2019-02-07T12:54:03.422Z,10.31
2019-02-07T12:58:59.319Z,10.25
2019-02-07T13:03:55.198Z,10.35
2019-02-07T13:08:51.196Z,10.33
2019-02-07T13:13:46.574Z,10.26
2019-02-07T13:18:43.074Z,10.40
2019-02-07T13:23:40.026Z,10.44
2019-02-07T13:28:36.729Z,10.34
2019-02-07T13:33:32.955Z,10.37
2019-02-07T13:38:29.398Z,10.37
2019-02-07T13:43:26.050Z,10.28
2019-02-07T13:48:21.158Z,10.30
2019-02-07T13:53:17.121Z,10.44
2019-02-07T13:58:12.856Z,10.57
2019-02-07T14:03:09.993Z,10.44
2019-02-07T14:08:05.485Z,10.48
2019-02-07T14:13:01.630Z,10.51
2019-02-07T14:17:57.560Z,10.48
2019-02-07T14:22:53.290Z,10.42
2019-02-07T14:27:49.883Z,10.30
2019-02-07T14:32:46.297Z,10.30
2019-02-07T14:37:41.967Z,10.35
2019-02-07T14:42:37.761Z,10.22
2019-02-07T14:47:33.631Z,10.20
2019-02-07T14:52:29.981Z,10.28
2019-02-07T14:57:25.761Z,10.20
2019-02-07T15:02:22.619Z,10.22
2019-02-07T15:07:18.213Z,10.16
2019-02-07T15:12:15.168Z,10.20
2019-02-07T15:17:10.457Z,10.15
2019-02-07T15:22:07.160Z,10.13
2019-02-07T15:27:03.066Z,10.09
2019-02-07T15:31:58.534Z,10.09
2019-02-07T15:36:54.633Z,10.01
2019-02-07T15:41:51.323Z," 9.89"
2019-02-07T15:46:46.822Z," 9.91"
2019-02-07T15:51:42.743Z," 9.87"
2019-02-07T15:56:39.624Z," 9.77"
2019-02-07T16:01:35.970Z," 9.68"
2019-02-07T16:06:31.415Z," 9.68"
2019-02-07T16:11:27.386Z," 9.58"
2019-02-07T16:16:22.999Z," 9.66"
2019-02-07T16:21:18.934Z," 9.51"
2019-02-07T16:26:14.565Z," 9.59"
2019-02-07T16:31:10.416Z," 9.76"
2019-02-07T16:36:06.720Z," 9.62"
2019-02-07T16:41:02.127Z," 9.51"
2019-02-07T16:45:57.808Z," 9.61"
2019-02-07T16:51:00.269Z," 9.48"
2019-02-07T16:55:53.658Z," 9.46"
2019-02-07T17:00:49.514Z," 9.51"
2019-02-07T17:05:45.967Z," 9.47"
2019-02-07T17:10:41.958Z," 9.50"
2019-02-07T17:15:37.528Z," 9.46"
2019-02-07T17:20:33.399Z," 9.47"
2019-02-07T17:25:29.082Z," 9.54"
2019-02-07T17:30:24.537Z," 9.48"
2019-02-07T17:35:21.238Z," 9.36"
2019-02-07T17:40:17.392Z," 9.26"
2019-02-07T17:45:12.948Z," 9.18"
2019-02-07T17:50:08.626Z," 8.94"
2019-02-07T17:55:04.015Z," 8.89"
2019-02-07T18:00:00.644Z," 8.74"
2019-02-07T18:04:55.991Z," 8.69"
2019-02-07T18:09:51.868Z," 8.61"
2019-02-07T18:14:48.464Z," 8.55"
2019-02-07T18:19:43.828Z," 8.51"
2019-02-07T18:24:39.418Z," 8.49"
2019-02-07T18:29:35.001Z," 8.42"
2019-02-07T18:34:31.586Z," 8.38"
2019-02-07T18:39:27.061Z," 8.38"
2019-02-07T18:44:22.967Z," 8.38"
2019-02-07T18:49:18.736Z," 8.30"
2019-02-07T18:54:14.502Z," 8.33"
2019-02-07T18:59:10.146Z," 8.41"
2019-02-07T19:04:06.787Z," 8.41"
2019-02-07T19:09:02.308Z," 8.37"
2019-02-07T19:13:58.075Z," 8.31"
2019-02-07T19:18:54.811Z," 8.34"
2019-02-07T19:23:50.332Z," 8.33"
2019-02-07T19:28:46.119Z," 8.44"
2019-02-07T19:33:41.966Z," 8.28"
2019-02-07T19:38:37.730Z," 8.26"
2019-02-07T19:43:34.475Z," 8.30"
2019-02-07T19:48:29.744Z," 8.27"
2019-02-07T19:53:25.707Z," 8.16"
2019-02-07T19:58:21.295Z," 8.13"
2019-02-07T20:03:17.896Z," 8.13"
2019-02-07T20:08:13.189Z," 8.08"
2019-02-07T20:13:09.465Z," 8.13"
2019-02-07T20:18:05.085Z," 8.12"
2019-02-07T20:23:00.848Z," 8.10"
2019-02-07T20:27:56.611Z," 8.20"
2019-02-07T20:32:52.402Z," 8.13"
2019-02-07T20:37:48.338Z," 8.24"
2019-02-07T20:42:43.927Z," 8.19"
2019-02-07T20:47:39.997Z," 8.06"
2019-02-07T20:52:36.825Z," 8.06"
2019-02-07T20:57:32.030Z," 8.08"
2019-02-07T21:02:27.666Z," 7.98"
2019-02-07T21:07:23.453Z," 7.95"
2019-02-07T21:12:19.213Z," 8.00"
2019-02-07T21:17:15.075Z," 8.10"
2019-02-07T21:22:10.561Z," 8.16"
2019-02-07T21:27:06.492Z," 8.15"
2019-02-07T21:32:02.346Z," 8.08"
2019-02-07T21:36:58.920Z," 8.20"
2019-02-07T21:41:54.705Z," 8.10"
2019-02-07T21:46:50.476Z," 8.09"
2019-02-07T21:51:47.848Z," 8.01"
2019-02-07T21:56:43.293Z," 7.98"
2019-02-07T22:01:39.039Z," 7.94"
2019-02-07T22:06:34.489Z," 8.03"
2019-02-07T22:11:30.168Z," 7.90"
2019-02-07T22:16:26.561Z," 7.98"
2019-02-07T22:21:21.976Z," 8.00"
2019-02-07T22:26:18.514Z," 7.98"
2019-02-07T22:31:14.529Z," 8.03"
2019-02-07T22:36:11.261Z," 8.01"
2019-02-07T22:41:06.739Z," 8.05"
2019-02-07T22:46:03.674Z," 8.01"
2019-02-07T22:50:59.060Z," 8.03"
2019-02-07T22:55:55.047Z," 7.94"
2019-02-07T23:00:51.695Z," 7.97"
2019-02-07T23:05:47.186Z," 7.90"
2019-02-07T23:10:44.023Z," 7.95"
2019-02-07T23:15:40.301Z," 7.87"
2019-02-07T23:20:35.809Z," 7.83"
2019-02-07T23:25:31.472Z," 7.94"
2019-02-07T23:30:27.259Z," 7.90"
2019-02-07T23:35:23.909Z," 7.90"
2019-02-07T23:40:19.388Z," 7.83"
2019-02-07T23:45:15.178Z," 7.94"
2019-02-07T23:50:10.818Z," 7.93"
2019-02-07T23:55:07.530Z," 8.00"
